sensor_id;sensor_type;location;lat;lon;timestamp;temperature;humidity
78455;SHT31;67751;51.986;5.696;2023-02-28T00:00:47;4.3;61.3
78455;SHT31;67751;51.986;5.696;2023-02-28T00:03:17;4.3;61.4
78455;SHT31;67751;51.986;5.696;2023-02-28T00:05:48;4.3;62.0
78455;SHT31;67751;51.986;5.696;2023-02-28T00:08:18;4.3;62.2
78455;SHT31;67751;51.986;5.696;2023-02-28T00:10:48;4.3;62.6
78455;SHT31;67751;51.986;5.696;2023-02-28T00:13:17;4.3;62.4
78455;SHT31;67751;51.986;5.696;2023-02-28T00:15:47;4.3;62.5
78455;SHT31;67751;51.986;5.696;2023-02-28T00:18:17;4.3;62.5
78455;SHT31;67751;51.986;5.696;2023-02-28T00:20:46;4.3;62.8
78455;SHT31;67751;51.986;5.696;2023-02-28T00:23:18;4.3;62.8
78455;SHT31;67751;51.986;5.696;2023-02-28T00:25:48;4.3;62.9
78455;SHT31;67751;51.986;5.696;2023-02-28T00:28:18;4.4;62.5
78455;SHT31;67751;51.986;5.696;2023-02-28T00:30:48;4.4;63.2
78455;SHT31;67751;51.986;5.696;2023-02-28T00:33:19;4.4;62.7
78455;SHT31;67751;51.986;5.696;2023-02-28T00:35:49;4.4;62.7
78455;SHT31;67751;51.986;5.696;2023-02-28T00:38:18;4.4;63.2
78455;SHT31;67751;51.986;5.696;2023-02-28T00:40:50;4.5;63.2
78455;SHT31;67751;51.986;5.696;2023-02-28T00:43:20;4.5;62.8
78455;SHT31;67751;51.986;5.696;2023-02-28T00:45:49;4.6;63.1
78455;SHT31;67751;51.986;5.696;2023-02-28T00:48:19;4.6;63.0
78455;SHT31;67751;51.986;5.696;2023-02-28T00:50:50;4.6;63.1
78455;SHT31;67751;51.986;5.696;2023-02-28T00:53:19;4.7;62.3
78455;SHT31;67751;51.986;5.696;2023-02-28T00:55:51;4.7;62.4
78455;SHT31;67751;51.986;5.696;2023-02-28T00:58:21;4.7;62.9
78455;SHT31;67751;51.986;5.696;2023-02-28T01:00:52;4.8;62.5
78455;SHT31;67751;51.986;5.696;2023-02-28T01:03:22;4.8;62.7
78455;SHT31;67751;51.986;5.696;2023-02-28T01:05:51;4.8;62.4
78455;SHT31;67751;51.986;5.696;2023-02-28T01:08:22;4.9;61.6
78455;SHT31;67751;51.986;5.696;2023-02-28T01:10:53;4.9;61.0
78455;SHT31;67751;51.986;5.696;2023-02-28T01:13:23;4.9;61.0
78455;SHT31;67751;51.986;5.696;2023-02-28T01:15:55;4.9;60.9
78455;SHT31;67751;51.986;5.696;2023-02-28T01:18:25;4.9;60.7
78455;SHT31;67751;51.986;5.696;2023-02-28T01:20:56;4.9;60.8
78455;SHT31;67751;51.986;5.696;2023-02-28T01:23:26;4.9;61.1
78455;SHT31;67751;51.986;5.696;2023-02-28T01:25:55;4.9;61.2
78455;SHT31;67751;51.986;5.696;2023-02-28T01:28:27;5.0;61.1
78455;SHT31;67751;51.986;5.696;2023-02-28T01:30:57;5.0;61.2
78455;SHT31;67751;51.986;5.696;2023-02-28T01:33:27;5.0;61.0
78455;SHT31;67751;51.986;5.696;2023-02-28T01:36:01;5.0;61.8
78455;SHT31;67751;51.986;5.696;2023-02-28T01:38:31;5.0;61.2
78455;SHT31;67751;51.986;5.696;2023-02-28T01:41:01;5.0;61.0
78455;SHT31;67751;51.986;5.696;2023-02-28T01:43:54;5.0;61.1
78455;SHT31;67751;51.986;5.696;2023-02-28T01:46:25;5.0;60.9
78455;SHT31;67751;51.986;5.696;2023-02-28T01:48:59;5.0;61.2
78455;SHT31;67751;51.986;5.696;2023-02-28T01:51:35;5.1;61.6
78455;SHT31;67751;51.986;5.696;2023-02-28T01:54:12;5.1;61.4
78455;SHT31;67751;51.986;5.696;2023-02-28T01:56:47;5.1;61.1
78455;SHT31;67751;51.986;5.696;2023-02-28T01:59:23;5.1;61.2
78455;SHT31;67751;51.986;5.696;2023-02-28T02:01:54;5.1;61.0
78455;SHT31;67751;51.986;5.696;2023-02-28T02:04:28;5.1;61.5
78455;SHT31;67751;51.986;5.696;2023-02-28T02:07:04;5.1;61.5
78455;SHT31;67751;51.986;5.696;2023-02-28T02:09:34;5.1;61.2
78455;SHT31;67751;51.986;5.696;2023-02-28T02:12:13;5.1;61.8
78455;SHT31;67751;51.986;5.696;2023-02-28T02:14:59;5.1;61.2
78455;SHT31;67751;51.986;5.696;2023-02-28T02:17:35;5.2;61.2
78455;SHT31;67751;51.986;5.696;2023-02-28T02:22:31;5.2;61.2
78455;SHT31;67751;51.986;5.696;2023-02-28T02:25:28;5.2;61.0
78455;SHT31;67751;51.986;5.696;2023-02-28T02:28:22;5.2;60.8
78455;SHT31;67751;51.986;5.696;2023-02-28T02:31:32;5.2;61.0
78455;SHT31;67751;51.986;5.696;2023-02-28T02:34:26;5.2;61.0
78455;SHT31;67751;51.986;5.696;2023-02-28T02:37:10;5.3;60.6
78455;SHT31;67751;51.986;5.696;2023-02-28T02:39:52;5.3;60.0
78455;SHT31;67751;51.986;5.696;2023-02-28T02:42:27;5.3;60.3
78455;SHT31;67751;51.986;5.696;2023-02-28T02:45:03;5.3;60.6
78455;SHT31;67751;51.986;5.696;2023-02-28T02:47:35;5.3;60.1
78455;SHT31;67751;51.986;5.696;2023-02-28T02:50:11;5.3;60.1
78455;SHT31;67751;51.986;5.696;2023-02-28T02:52:46;5.3;60.2
78455;SHT31;67751;51.986;5.696;2023-02-28T02:55:20;5.3;60.2
78455;SHT31;67751;51.986;5.696;2023-02-28T02:57:54;5.3;59.4
78455;SHT31;67751;51.986;5.696;2023-02-28T03:00:33;5.3;59.9
78455;SHT31;67751;51.986;5.696;2023-02-28T03:03:05;5.4;59.9
78455;SHT31;67751;51.986;5.696;2023-02-28T03:05:44;5.4;59.6
78455;SHT31;67751;51.986;5.696;2023-02-28T03:08:16;5.4;59.3
78455;SHT31;67751;51.986;5.696;2023-02-28T03:10:49;5.4;59.2
78455;SHT31;67751;51.986;5.696;2023-02-28T03:14:35;5.4;59.6
78455;SHT31;67751;51.986;5.696;2023-02-28T03:17:38;5.4;59.6
78455;SHT31;67751;51.986;5.696;2023-02-28T03:20:21;5.4;60.3
78455;SHT31;67751;51.986;5.696;2023-02-28T03:23:03;5.4;60.4
78455;SHT31;67751;51.986;5.696;2023-02-28T03:25:49;5.4;60.0
78455;SHT31;67751;51.986;5.696;2023-02-28T03:28:31;5.4;60.2
78455;SHT31;67751;51.986;5.696;2023-02-28T03:31:09;5.4;59.9
78455;SHT31;67751;51.986;5.696;2023-02-28T03:33:46;5.4;60.2
78455;SHT31;67751;51.986;5.696;2023-02-28T03:36:27;5.4;59.8
78455;SHT31;67751;51.986;5.696;2023-02-28T03:39:00;5.4;60.0
78455;SHT31;67751;51.986;5.696;2023-02-28T03:41:36;5.4;60.4
78455;SHT31;67751;51.986;5.696;2023-02-28T03:44:13;5.4;60.2
78455;SHT31;67751;51.986;5.696;2023-02-28T03:46:50;5.4;59.6
78455;SHT31;67751;51.986;5.696;2023-02-28T03:49:26;5.4;59.5
78455;SHT31;67751;51.986;5.696;2023-02-28T03:52:02;5.4;59.4
78455;SHT31;67751;51.986;5.696;2023-02-28T03:54:38;5.4;60.1
78455;SHT31;67751;51.986;5.696;2023-02-28T03:57:15;5.4;58.3
78455;SHT31;67751;51.986;5.696;2023-02-28T03:59:56;5.3;58.1
78455;SHT31;67751;51.986;5.696;2023-02-28T04:02:27;5.3;58.2
78455;SHT31;67751;51.986;5.696;2023-02-28T04:04:57;5.3;57.5
78455;SHT31;67751;51.986;5.696;2023-02-28T04:07:29;5.3;58.3
78455;SHT31;67751;51.986;5.696;2023-02-28T04:09:59;5.3;58.8
78455;SHT31;67751;51.986;5.696;2023-02-28T04:12:29;5.3;58.3
78455;SHT31;67751;51.986;5.696;2023-02-28T04:14:58;5.3;57.7
78455;SHT31;67751;51.986;5.696;2023-02-28T04:17:28;5.3;58.3
78455;SHT31;67751;51.986;5.696;2023-02-28T04:19:58;5.3;58.2
78455;SHT31;67751;51.986;5.696;2023-02-28T04:22:27;5.3;58.5
78455;SHT31;67751;51.986;5.696;2023-02-28T04:24:57;5.3;58.8
78455;SHT31;67751;51.986;5.696;2023-02-28T04:27:29;5.3;59.1
78455;SHT31;67751;51.986;5.696;2023-02-28T04:29:58;5.3;59.0
78455;SHT31;67751;51.986;5.696;2023-02-28T04:32:30;5.2;58.1
78455;SHT31;67751;51.986;5.696;2023-02-28T04:35:00;5.2;59.2
78455;SHT31;67751;51.986;5.696;2023-02-28T04:37:30;5.2;58.8
78455;SHT31;67751;51.986;5.696;2023-02-28T04:40:03;5.2;58.9
78455;SHT31;67751;51.986;5.696;2023-02-28T04:42:33;5.2;58.2
78455;SHT31;67751;51.986;5.696;2023-02-28T04:45:05;5.1;58.5
78455;SHT31;67751;51.986;5.696;2023-02-28T04:47:37;5.1;58.4
78455;SHT31;67751;51.986;5.696;2023-02-28T04:50:10;5.1;57.7
78455;SHT31;67751;51.986;5.696;2023-02-28T04:52:40;5.1;57.9
78455;SHT31;67751;51.986;5.696;2023-02-28T04:55:13;5.1;57.6
78455;SHT31;67751;51.986;5.696;2023-02-28T04:57:42;5.1;58.4
78455;SHT31;67751;51.986;5.696;2023-02-28T05:00:13;5.1;57.5
78455;SHT31;67751;51.986;5.696;2023-02-28T05:02:44;5.1;57.2
78455;SHT31;67751;51.986;5.696;2023-02-28T05:05:15;5.1;58.2
78455;SHT31;67751;51.986;5.696;2023-02-28T05:07:45;5.0;57.3
78455;SHT31;67751;51.986;5.696;2023-02-28T05:10:15;5.0;57.6
78455;SHT31;67751;51.986;5.696;2023-02-28T05:12:44;5.0;57.3
78455;SHT31;67751;51.986;5.696;2023-02-28T05:15:17;5.0;57.8
78455;SHT31;67751;51.986;5.696;2023-02-28T05:17:47;5.0;58.4
78455;SHT31;67751;51.986;5.696;2023-02-28T05:20:17;5.0;58.1
78455;SHT31;67751;51.986;5.696;2023-02-28T05:22:49;5.0;58.0
78455;SHT31;67751;51.986;5.696;2023-02-28T05:25:22;5.1;57.3
78455;SHT31;67751;51.986;5.696;2023-02-28T05:27:54;5.1;57.7
78455;SHT31;67751;51.986;5.696;2023-02-28T05:30:24;5.1;58.3
78455;SHT31;67751;51.986;5.696;2023-02-28T05:32:53;5.1;58.8
78455;SHT31;67751;51.986;5.696;2023-02-28T05:35:24;5.1;58.7
78455;SHT31;67751;51.986;5.696;2023-02-28T05:37:54;5.1;57.7
78455;SHT31;67751;51.986;5.696;2023-02-28T05:40:23;5.1;58.0
78455;SHT31;67751;51.986;5.696;2023-02-28T05:42:53;5.1;57.8
78455;SHT31;67751;51.986;5.696;2023-02-28T05:45:22;5.1;58.6
78455;SHT31;67751;51.986;5.696;2023-02-28T05:47:55;5.1;58.6
78455;SHT31;67751;51.986;5.696;2023-02-28T05:50:25;5.1;58.8
78455;SHT31;67751;51.986;5.696;2023-02-28T05:52:54;5.1;58.7
78455;SHT31;67751;51.986;5.696;2023-02-28T05:55:24;5.1;58.4
78455;SHT31;67751;51.986;5.696;2023-02-28T05:57:54;5.1;59.0
78455;SHT31;67751;51.986;5.696;2023-02-28T06:00:25;5.1;57.8
78455;SHT31;67751;51.986;5.696;2023-02-28T06:02:55;5.1;58.4
78455;SHT31;67751;51.986;5.696;2023-02-28T06:05:29;5.1;57.9
78455;SHT31;67751;51.986;5.696;2023-02-28T06:07:58;5.1;57.7
78455;SHT31;67751;51.986;5.696;2023-02-28T06:10:30;5.1;57.6
78455;SHT31;67751;51.986;5.696;2023-02-28T06:13:02;5.1;57.7
78455;SHT31;67751;51.986;5.696;2023-02-28T06:15:32;5.0;57.7
78455;SHT31;67751;51.986;5.696;2023-02-28T06:18:04;5.0;58.0
78455;SHT31;67751;51.986;5.696;2023-02-28T06:20:34;5.0;57.7
78455;SHT31;67751;51.986;5.696;2023-02-28T06:23:03;5.0;57.2
78455;SHT31;67751;51.986;5.696;2023-02-28T06:25:33;5.0;58.6
78455;SHT31;67751;51.986;5.696;2023-02-28T06:28:03;5.0;59.1
78455;SHT31;67751;51.986;5.696;2023-02-28T06:30:33;5.0;58.8
78455;SHT31;67751;51.986;5.696;2023-02-28T06:33:03;5.0;58.2
78455;SHT31;67751;51.986;5.696;2023-02-28T06:35:34;5.0;58.4
78455;SHT31;67751;51.986;5.696;2023-02-28T06:38:05;5.0;58.7
78455;SHT31;67751;51.986;5.696;2023-02-28T06:40:35;5.1;58.6
78455;SHT31;67751;51.986;5.696;2023-02-28T06:43:05;5.1;57.8
78455;SHT31;67751;51.986;5.696;2023-02-28T06:45:35;5.1;58.7
78455;SHT31;67751;51.986;5.696;2023-02-28T06:48:05;5.1;58.8
78455;SHT31;67751;51.986;5.696;2023-02-28T06:50:35;5.1;58.8
78455;SHT31;67751;51.986;5.696;2023-02-28T06:53:04;5.1;59.0
78455;SHT31;67751;51.986;5.696;2023-02-28T06:55:36;5.1;58.8
78455;SHT31;67751;51.986;5.696;2023-02-28T06:58:06;5.1;59.4
78455;SHT31;67751;51.986;5.696;2023-02-28T07:00:42;5.1;59.0
78455;SHT31;67751;51.986;5.696;2023-02-28T07:03:14;5.1;59.1
78455;SHT31;67751;51.986;5.696;2023-02-28T07:05:45;5.1;59.5
78455;SHT31;67751;51.986;5.696;2023-02-28T07:08:15;5.2;59.2
78455;SHT31;67751;51.986;5.696;2023-02-28T07:10:46;5.2;58.5
78455;SHT31;67751;51.986;5.696;2023-02-28T07:13:16;5.2;58.6
78455;SHT31;67751;51.986;5.696;2023-02-28T07:15:56;5.2;59.0
78455;SHT31;67751;51.986;5.696;2023-02-28T07:18:26;5.2;58.8
78455;SHT31;67751;51.986;5.696;2023-02-28T07:20:57;5.2;58.5
78455;SHT31;67751;51.986;5.696;2023-02-28T07:23:26;5.2;58.7
78455;SHT31;67751;51.986;5.696;2023-02-28T07:25:56;5.2;58.7
78455;SHT31;67751;51.986;5.696;2023-02-28T07:28:26;5.2;58.9
78455;SHT31;67751;51.986;5.696;2023-02-28T07:30:56;5.3;58.5
78455;SHT31;67751;51.986;5.696;2023-02-28T07:33:26;5.3;58.6
78455;SHT31;67751;51.986;5.696;2023-02-28T07:36:03;5.3;58.0
78455;SHT31;67751;51.986;5.696;2023-02-28T07:38:36;5.3;57.9
78455;SHT31;67751;51.986;5.696;2023-02-28T07:41:07;5.3;58.3
78455;SHT31;67751;51.986;5.696;2023-02-28T07:43:39;5.3;57.6
78455;SHT31;67751;51.986;5.696;2023-02-28T07:46:11;5.3;57.6
78455;SHT31;67751;51.986;5.696;2023-02-28T07:48:43;5.3;56.5
78455;SHT31;67751;51.986;5.696;2023-02-28T07:51:15;5.4;56.6
78455;SHT31;67751;51.986;5.696;2023-02-28T07:53:45;5.4;57.2
78455;SHT31;67751;51.986;5.696;2023-02-28T07:56:14;5.4;56.0
78455;SHT31;67751;51.986;5.696;2023-02-28T07:58:44;5.4;56.7
78455;SHT31;67751;51.986;5.696;2023-02-28T08:01:14;5.4;56.3
78455;SHT31;67751;51.986;5.696;2023-02-28T08:03:44;5.4;55.4
78455;SHT31;67751;51.986;5.696;2023-02-28T08:06:19;5.4;56.0
78455;SHT31;67751;51.986;5.696;2023-02-28T08:08:49;5.5;51.4
78455;SHT31;67751;51.986;5.696;2023-02-28T08:11:19;5.5;49.9
78455;SHT31;67751;51.986;5.696;2023-02-28T08:13:49;5.5;49.7
78455;SHT31;67751;51.986;5.696;2023-02-28T08:16:19;5.5;48.5
78455;SHT31;67751;51.986;5.696;2023-02-28T08:18:51;5.6;46.1
78455;SHT31;67751;51.986;5.696;2023-02-28T08:21:21;5.6;46.2
78455;SHT31;67751;51.986;5.696;2023-02-28T08:23:51;5.6;43.0
78455;SHT31;67751;51.986;5.696;2023-02-28T08:26:23;5.7;43.5
78455;SHT31;67751;51.986;5.696;2023-02-28T08:28:53;5.7;42.5
78455;SHT31;67751;51.986;5.696;2023-02-28T08:31:23;5.7;43.7
78455;SHT31;67751;51.986;5.696;2023-02-28T08:33:53;5.8;45.2
78455;SHT31;67751;51.986;5.696;2023-02-28T08:36:26;5.8;42.8
78455;SHT31;67751;51.986;5.696;2023-02-28T08:38:57;5.8;42.6
78455;SHT31;67751;51.986;5.696;2023-02-28T08:41:29;5.9;42.1
78455;SHT31;67751;51.986;5.696;2023-02-28T08:43:59;5.9;43.2
78455;SHT31;67751;51.986;5.696;2023-02-28T08:46:29;5.9;41.5
78455;SHT31;67751;51.986;5.696;2023-02-28T08:48:58;5.9;43.1
78455;SHT31;67751;51.986;5.696;2023-02-28T08:51:29;6.0;43.0
78455;SHT31;67751;51.986;5.696;2023-02-28T08:54:00;6.0;42.7
78455;SHT31;67751;51.986;5.696;2023-02-28T08:56:30;6.0;42.4
78455;SHT31;67751;51.986;5.696;2023-02-28T08:59:00;6.1;41.2
78455;SHT31;67751;51.986;5.696;2023-02-28T09:01:30;6.1;40.5
78455;SHT31;67751;51.986;5.696;2023-02-28T09:04:00;6.1;40.8
78455;SHT31;67751;51.986;5.696;2023-02-28T09:06:32;6.1;42.3
78455;SHT31;67751;51.986;5.696;2023-02-28T09:09:02;6.1;42.4
78455;SHT31;67751;51.986;5.696;2023-02-28T09:11:35;6.2;43.8
78455;SHT31;67751;51.986;5.696;2023-02-28T09:14:07;6.2;41.3
78455;SHT31;67751;51.986;5.696;2023-02-28T09:16:37;6.2;40.8
78455;SHT31;67751;51.986;5.696;2023-02-28T09:19:10;6.2;43.8
78455;SHT31;67751;51.986;5.696;2023-02-28T09:21:40;6.2;44.0
78455;SHT31;67751;51.986;5.696;2023-02-28T09:24:12;6.2;40.0
78455;SHT31;67751;51.986;5.696;2023-02-28T09:26:42;6.3;42.5
78455;SHT31;67751;51.986;5.696;2023-02-28T09:29:12;6.3;38.8
78455;SHT31;67751;51.986;5.696;2023-02-28T09:31:44;6.3;40.0
78455;SHT31;67751;51.986;5.696;2023-02-28T09:34:13;6.3;40.2
78455;SHT31;67751;51.986;5.696;2023-02-28T09:36:45;6.3;41.4
78455;SHT31;67751;51.986;5.696;2023-02-28T09:39:14;6.3;38.5
78455;SHT31;67751;51.986;5.696;2023-02-28T09:41:47;6.3;37.7
78455;SHT31;67751;51.986;5.696;2023-02-28T09:44:24;6.3;39.0
78455;SHT31;67751;51.986;5.696;2023-02-28T09:47:00;6.3;37.7
78455;SHT31;67751;51.986;5.696;2023-02-28T09:49:41;6.3;40.2
78455;SHT31;67751;51.986;5.696;2023-02-28T09:52:17;6.3;40.7
78455;SHT31;67751;51.986;5.696;2023-02-28T09:54:47;6.3;40.6
78455;SHT31;67751;51.986;5.696;2023-02-28T09:57:26;6.3;40.1
78455;SHT31;67751;51.986;5.696;2023-02-28T10:00:07;6.3;39.7
78455;SHT31;67751;51.986;5.696;2023-02-28T10:02:54;6.4;41.3
78455;SHT31;67751;51.986;5.696;2023-02-28T10:05:32;6.4;42.7
78455;SHT31;67751;51.986;5.696;2023-02-28T10:08:10;6.4;39.6
78455;SHT31;67751;51.986;5.696;2023-02-28T10:10:44;6.4;38.7
78455;SHT31;67751;51.986;5.696;2023-02-28T10:13:23;6.5;38.3
78455;SHT31;67751;51.986;5.696;2023-02-28T10:15:58;6.5;41.1
78455;SHT31;67751;51.986;5.696;2023-02-28T10:18:34;6.5;36.5
78455;SHT31;67751;51.986;5.696;2023-02-28T10:21:06;6.6;38.7
78455;SHT31;67751;51.986;5.696;2023-02-28T10:23:39;6.6;37.9
78455;SHT31;67751;51.986;5.696;2023-02-28T10:26:12;6.6;37.5
78455;SHT31;67751;51.986;5.696;2023-02-28T10:28:45;6.6;39.8
78455;SHT31;67751;51.986;5.696;2023-02-28T10:31:19;6.6;39.7
78455;SHT31;67751;51.986;5.696;2023-02-28T10:33:49;6.6;40.0
78455;SHT31;67751;51.986;5.696;2023-02-28T10:36:20;6.7;40.0
78455;SHT31;67751;51.986;5.696;2023-02-28T10:38:50;6.7;38.1
78455;SHT31;67751;51.986;5.696;2023-02-28T10:41:30;6.7;40.8
78455;SHT31;67751;51.986;5.696;2023-02-28T10:44:17;6.7;40.9
78455;SHT31;67751;51.986;5.696;2023-02-28T10:46:50;6.8;39.9
78455;SHT31;67751;51.986;5.696;2023-02-28T10:49:23;6.8;36.9
78455;SHT31;67751;51.986;5.696;2023-02-28T10:51:55;6.8;38.4
78455;SHT31;67751;51.986;5.696;2023-02-28T10:54:30;6.8;40.1
78455;SHT31;67751;51.986;5.696;2023-02-28T10:57:20;6.9;39.5
78455;SHT31;67751;51.986;5.696;2023-02-28T11:00:06;6.9;37.7
78455;SHT31;67751;51.986;5.696;2023-02-28T11:02:36;6.9;39.7
78455;SHT31;67751;51.986;5.696;2023-02-28T11:05:28;6.9;40.8
78455;SHT31;67751;51.986;5.696;2023-02-28T11:08:06;7.0;38.0
78455;SHT31;67751;51.986;5.696;2023-02-28T11:10:47;7.0;37.6
78455;SHT31;67751;51.986;5.696;2023-02-28T11:13:21;7.0;37.8
78455;SHT31;67751;51.986;5.696;2023-02-28T11:15:54;7.0;37.6
78455;SHT31;67751;51.986;5.696;2023-02-28T11:18:29;7.1;37.1
78455;SHT31;67751;51.986;5.696;2023-02-28T11:21:02;7.1;38.5
78455;SHT31;67751;51.986;5.696;2023-02-28T11:23:35;7.1;40.6
78455;SHT31;67751;51.986;5.696;2023-02-28T11:26:07;7.1;37.9
78455;SHT31;67751;51.986;5.696;2023-02-28T11:28:40;7.2;39.0
78455;SHT31;67751;51.986;5.696;2023-02-28T11:31:18;7.2;38.8
78455;SHT31;67751;51.986;5.696;2023-02-28T11:33:51;7.2;39.6
78455;SHT31;67751;51.986;5.696;2023-02-28T11:36:23;7.2;38.3
78455;SHT31;67751;51.986;5.696;2023-02-28T11:38:56;7.2;37.2
78455;SHT31;67751;51.986;5.696;2023-02-28T11:41:45;7.3;38.7
78455;SHT31;67751;51.986;5.696;2023-02-28T11:44:34;7.3;37.3
78455;SHT31;67751;51.986;5.696;2023-02-28T11:47:13;7.3;38.4
78455;SHT31;67751;51.986;5.696;2023-02-28T11:49:55;7.3;40.3
78455;SHT31;67751;51.986;5.696;2023-02-28T11:52:36;7.4;38.8
78455;SHT31;67751;51.986;5.696;2023-02-28T11:55:14;7.4;35.5
78455;SHT31;67751;51.986;5.696;2023-02-28T12:03:03;7.4;37.3
78455;SHT31;67751;51.986;5.696;2023-02-28T12:05:42;7.5;37.6
78455;SHT31;67751;51.986;5.696;2023-02-28T12:08:27;7.5;37.4
78455;SHT31;67751;51.986;5.696;2023-02-28T12:11:14;7.5;35.5
78455;SHT31;67751;51.986;5.696;2023-02-28T12:13:57;7.5;36.5
78455;SHT31;67751;51.986;5.696;2023-02-28T12:16:43;7.5;36.6
78455;SHT31;67751;51.986;5.696;2023-02-28T12:19:23;7.6;36.4
78455;SHT31;67751;51.986;5.696;2023-02-28T12:22:15;7.6;37.5
78455;SHT31;67751;51.986;5.696;2023-02-28T12:24:57;7.6;35.4
78455;SHT31;67751;51.986;5.696;2023-02-28T12:27:34;7.6;35.3
78455;SHT31;67751;51.986;5.696;2023-02-28T12:30:16;7.6;35.3
78455;SHT31;67751;51.986;5.696;2023-02-28T12:32:52;7.6;36.0
78455;SHT31;67751;51.986;5.696;2023-02-28T12:35:27;7.7;38.2
78455;SHT31;67751;51.986;5.696;2023-02-28T12:38:04;7.7;37.4
78455;SHT31;67751;51.986;5.696;2023-02-28T12:40:45;7.7;37.8
78455;SHT31;67751;51.986;5.696;2023-02-28T12:43:18;7.7;34.7
78455;SHT31;67751;51.986;5.696;2023-02-28T12:45:53;7.7;35.6
78455;SHT31;67751;51.986;5.696;2023-02-28T12:48:27;7.8;37.6
78455;SHT31;67751;51.986;5.696;2023-02-28T12:51:01;7.8;39.3
78455;SHT31;67751;51.986;5.696;2023-02-28T12:53:41;7.8;37.8
78455;SHT31;67751;51.986;5.696;2023-02-28T12:56:20;7.8;37.2
78455;SHT31;67751;51.986;5.696;2023-02-28T12:58:56;7.9;37.3
78455;SHT31;67751;51.986;5.696;2023-02-28T13:01:51;7.9;35.7
78455;SHT31;67751;51.986;5.696;2023-02-28T13:04:47;7.9;36.8
78455;SHT31;67751;51.986;5.696;2023-02-28T13:07:44;8.0;35.0
78455;SHT31;67751;51.986;5.696;2023-02-28T13:10:17;8.0;36.8
78455;SHT31;67751;51.986;5.696;2023-02-28T13:12:52;8.0;37.7
78455;SHT31;67751;51.986;5.696;2023-02-28T13:15:26;8.0;36.9
78455;SHT31;67751;51.986;5.696;2023-02-28T13:17:59;8.1;36.8
78455;SHT31;67751;51.986;5.696;2023-02-28T13:20:36;8.1;34.7
78455;SHT31;67751;51.986;5.696;2023-02-28T13:23:38;8.1;36.3
78455;SHT31;67751;51.986;5.696;2023-02-28T13:26:09;8.1;35.2
78455;SHT31;67751;51.986;5.696;2023-02-28T13:33:25;8.1;36.3
78455;SHT31;67751;51.986;5.696;2023-02-28T13:36:39;8.1;36.1
78455;SHT31;67751;51.986;5.696;2023-02-28T13:39:47;8.2;34.6
78455;SHT31;67751;51.986;5.696;2023-02-28T13:43:19;8.2;36.1
78455;SHT31;67751;51.986;5.696;2023-02-28T13:46:10;8.2;37.7
78455;SHT31;67751;51.986;5.696;2023-02-28T13:48:41;8.2;36.3
78455;SHT31;67751;51.986;5.696;2023-02-28T13:51:31;8.2;35.8
78455;SHT31;67751;51.986;5.696;2023-02-28T13:54:19;8.1;35.0
78455;SHT31;67751;51.986;5.696;2023-02-28T13:57:01;8.1;34.6
78455;SHT31;67751;51.986;5.696;2023-02-28T13:59:43;8.1;35.0
78455;SHT31;67751;51.986;5.696;2023-02-28T14:02:51;8.1;35.1
78455;SHT31;67751;51.986;5.696;2023-02-28T14:05:22;8.2;35.1
78455;SHT31;67751;51.986;5.696;2023-02-28T14:07:57;8.2;36.3
78455;SHT31;67751;51.986;5.696;2023-02-28T14:10:30;8.2;34.9
78455;SHT31;67751;51.986;5.696;2023-02-28T14:13:03;8.2;35.0
78455;SHT31;67751;51.986;5.696;2023-02-28T14:15:39;8.2;33.9
78455;SHT31;67751;51.986;5.696;2023-02-28T14:18:20;8.2;36.1
78455;SHT31;67751;51.986;5.696;2023-02-28T14:20:57;8.2;35.9
78455;SHT31;67751;51.986;5.696;2023-02-28T14:24:07;8.2;36.2
78455;SHT31;67751;51.986;5.696;2023-02-28T14:31:19;8.1;37.2
78455;SHT31;67751;51.986;5.696;2023-02-28T14:34:20;8.1;36.2
78455;SHT31;67751;51.986;5.696;2023-02-28T14:36:53;8.1;37.2
78455;SHT31;67751;51.986;5.696;2023-02-28T14:39:28;8.1;35.7
78455;SHT31;67751;51.986;5.696;2023-02-28T14:42:00;8.1;36.4
78455;SHT31;67751;51.986;5.696;2023-02-28T14:44:35;8.1;36.1
78455;SHT31;67751;51.986;5.696;2023-02-28T14:47:14;8.1;36.6
78455;SHT31;67751;51.986;5.696;2023-02-28T14:49:45;8.1;37.0
78455;SHT31;67751;51.986;5.696;2023-02-28T14:52:20;8.1;36.5
78455;SHT31;67751;51.986;5.696;2023-02-28T14:54:55;8.1;35.6
78455;SHT31;67751;51.986;5.696;2023-02-28T14:57:27;8.1;35.6
78455;SHT31;67751;51.986;5.696;2023-02-28T15:00:04;8.1;35.2
78455;SHT31;67751;51.986;5.696;2023-02-28T15:02:39;8.1;34.8
78455;SHT31;67751;51.986;5.696;2023-02-28T15:05:23;8.1;35.1
78455;SHT31;67751;51.986;5.696;2023-02-28T15:08:04;8.1;36.7
78455;SHT31;67751;51.986;5.696;2023-02-28T15:10:34;8.1;36.2
78455;SHT31;67751;51.986;5.696;2023-02-28T15:13:06;8.1;35.6
78455;SHT31;67751;51.986;5.696;2023-02-28T15:15:42;8.1;37.2
78455;SHT31;67751;51.986;5.696;2023-02-28T15:18:17;8.1;38.7
78455;SHT31;67751;51.986;5.696;2023-02-28T15:20:51;8.1;37.5
78455;SHT31;67751;51.986;5.696;2023-02-28T15:23:22;8.1;39.6
78455;SHT31;67751;51.986;5.696;2023-02-28T15:25:55;8.1;36.7
78455;SHT31;67751;51.986;5.696;2023-02-28T15:28:26;8.1;38.6
78455;SHT31;67751;51.986;5.696;2023-02-28T15:31:00;8.1;37.3
78455;SHT31;67751;51.986;5.696;2023-02-28T15:33:32;8.1;37.5
78455;SHT31;67751;51.986;5.696;2023-02-28T15:36:14;8.1;37.3
78455;SHT31;67751;51.986;5.696;2023-02-28T15:38:52;8.1;40.5
78455;SHT31;67751;51.986;5.696;2023-02-28T15:41:27;8.1;40.3
78455;SHT31;67751;51.986;5.696;2023-02-28T15:44:16;8.1;36.9
78455;SHT31;67751;51.986;5.696;2023-02-28T15:46:59;8.1;39.4
78455;SHT31;67751;51.986;5.696;2023-02-28T15:49:40;8.1;37.8
78455;SHT31;67751;51.986;5.696;2023-02-28T15:52:17;8.1;39.5
78455;SHT31;67751;51.986;5.696;2023-02-28T15:54:48;8.1;39.9
78455;SHT31;67751;51.986;5.696;2023-02-28T15:57:21;8.0;37.7
78455;SHT31;67751;51.986;5.696;2023-02-28T15:59:56;8.0;36.7
78455;SHT31;67751;51.986;5.696;2023-02-28T16:02:33;8.0;36.8
78455;SHT31;67751;51.986;5.696;2023-02-28T16:05:19;8.0;36.4
78455;SHT31;67751;51.986;5.696;2023-02-28T16:07:57;7.9;37.5
78455;SHT31;67751;51.986;5.696;2023-02-28T16:10:29;7.9;38.0
78455;SHT31;67751;51.986;5.696;2023-02-28T16:12:58;7.9;39.7
78455;SHT31;67751;51.986;5.696;2023-02-28T16:15:34;7.9;39.9
78455;SHT31;67751;51.986;5.696;2023-02-28T16:18:11;7.9;39.8
78455;SHT31;67751;51.986;5.696;2023-02-28T16:20:41;7.9;40.8
78455;SHT31;67751;51.986;5.696;2023-02-28T16:23:12;7.9;38.9
78455;SHT31;67751;51.986;5.696;2023-02-28T16:25:43;7.8;39.1
78455;SHT31;67751;51.986;5.696;2023-02-28T16:28:21;7.8;40.6
78455;SHT31;67751;51.986;5.696;2023-02-28T16:30:53;7.8;41.1
78455;SHT31;67751;51.986;5.696;2023-02-28T16:33:23;7.8;39.9
78455;SHT31;67751;51.986;5.696;2023-02-28T16:35:53;7.8;41.2
78455;SHT31;67751;51.986;5.696;2023-02-28T16:38:23;7.8;41.3
78455;SHT31;67751;51.986;5.696;2023-02-28T16:40:58;7.7;41.5
78455;SHT31;67751;51.986;5.696;2023-02-28T16:43:31;7.7;41.5
78455;SHT31;67751;51.986;5.696;2023-02-28T16:46:01;7.7;40.9
78455;SHT31;67751;51.986;5.696;2023-02-28T16:48:31;7.7;40.8
78455;SHT31;67751;51.986;5.696;2023-02-28T16:51:00;7.7;41.8
78455;SHT31;67751;51.986;5.696;2023-02-28T16:53:31;7.7;39.2
78455;SHT31;67751;51.986;5.696;2023-02-28T16:56:02;7.6;40.4
78455;SHT31;67751;51.986;5.696;2023-02-28T16:58:34;7.6;41.9
78455;SHT31;67751;51.986;5.696;2023-02-28T17:01:07;7.6;41.8
78455;SHT31;67751;51.986;5.696;2023-02-28T17:03:37;7.6;41.4
78455;SHT31;67751;51.986;5.696;2023-02-28T17:06:18;7.5;41.0
78455;SHT31;67751;51.986;5.696;2023-02-28T17:08:50;7.5;41.1
78455;SHT31;67751;51.986;5.696;2023-02-28T17:11:21;7.5;42.5
78455;SHT31;67751;51.986;5.696;2023-02-28T17:13:51;7.5;42.1
78455;SHT31;67751;51.986;5.696;2023-02-28T17:16:25;7.4;42.6
78455;SHT31;67751;51.986;5.696;2023-02-28T17:18:58;7.4;41.9
78455;SHT31;67751;51.986;5.696;2023-02-28T17:21:29;7.4;42.3
78455;SHT31;67751;51.986;5.696;2023-02-28T17:23:59;7.4;42.6